Time;durP1;ratioP1;P1;durP2;ratioP2;P2;SDS_P1;SDS_P2;PMS_P1;PMS_P2;Temp;Humidity;BMP_temperature;BMP_pressure;BME280_temperature;BME280_humidity;BME280_pressure;Samples;Min_cycle;Max_cycle;Signal;HPM_P1;HPM_P2
2022/04/13 00:01:00;;;;;;;9.35;6.88;;;12.40;99.90;;;;;;5065013;28;20377;-35
2022/04/13 00:03:26;;;;;;;7.75;6.20;;;12.40;99.90;;;;;;5065054;28;20037;-34
2022/04/13 00:05:51;;;;;;;8.77;6.35;;;12.40;99.90;;;;;;5046047;28;20049;-33
2022/04/13 00:08:17;;;;;;;10.05;6.55;;;12.30;99.90;;;;;;5049767;28;20063;-34
2022/04/13 00:10:43;;;;;;;8.98;6.38;;;12.20;99.90;;;;;;5052837;28;20131;-33
2022/04/13 00:13:09;;;;;;;10.13;6.45;;;12.20;99.90;;;;;;5045177;28;20106;-34
2022/04/13 00:15:35;;;;;;;10.07;7.15;;;12.20;99.90;;;;;;5044686;28;20342;-34
2022/04/13 00:18:08;;;;;;;9.75;6.70;;;12.20;99.90;;;;;;5030013;28;20053;-35
2022/04/13 00:20:34;;;;;;;8.57;6.55;;;12.20;99.90;;;;;;5044490;28;20637;-33
2022/04/13 00:23:00;;;;;;;10.20;7.35;;;12.20;99.90;;;;;;5045017;28;20045;-31
2022/04/13 00:25:26;;;;;;;9.80;6.88;;;12.10;99.90;;;;;;5046013;28;20041;-34
2022/04/13 00:27:51;;;;;;;10.68;6.85;;;12.00;99.90;;;;;;5029316;28;20052;-34
2022/04/13 00:30:17;;;;;;;12.20;7.93;;;12.00;99.90;;;;;;5044520;28;20048;-35
2022/04/13 00:32:43;;;;;;;12.05;7.82;;;12.00;99.90;;;;;;5044579;28;20044;-32
2022/04/13 00:35:09;;;;;;;13.05;7.55;;;12.00;99.90;;;;;;5043997;28;20049;-33
2022/04/13 00:37:37;;;;;;;12.65;7.50;;;12.00;99.90;;;;;;5045753;28;20459;-33
2022/04/13 00:40:04;;;;;;;9.98;7.85;;;12.00;99.90;;;;;;5065732;28;20281;-35
2022/04/13 00:42:30;;;;;;;11.35;7.60;;;12.00;99.90;;;;;;5064521;28;20048;-33
2022/04/13 00:44:56;;;;;;;11.57;8.02;;;12.00;99.90;;;;;;5065550;28;20045;-35
2022/04/13 00:47:21;;;;;;;11.05;7.47;;;12.00;99.90;;;;;;5046955;28;20052;-35
2022/04/13 00:49:47;;;;;;;13.55;8.02;;;12.00;99.90;;;;;;5055950;28;20048;-34
2022/04/13 00:52:15;;;;;;;9.95;7.57;;;11.90;99.90;;;;;;5060770;28;20068;-35
2022/04/13 00:54:43;;;;;;;13.20;7.82;;;12.00;99.90;;;;;;5045243;28;20041;-33
2022/04/13 00:57:11;;;;;;;11.77;7.45;;;11.90;99.90;;;;;;5028989;28;20592;-34
2022/04/13 00:59:38;;;;;;;11.05;7.95;;;11.90;99.90;;;;;;5047060;28;20106;-34
2022/04/13 01:02:07;;;;;;;10.73;7.68;;;11.90;99.90;;;;;;5064406;28;20032;-39
2022/04/13 01:04:34;;;;;;;13.27;7.88;;;11.90;99.90;;;;;;5059865;28;20044;-35
2022/04/13 01:07:01;;;;;;;10.82;7.93;;;11.80;99.90;;;;;;5046404;28;20072;-35
2022/04/13 01:09:29;;;;;;;13.43;7.53;;;11.80;99.90;;;;;;5060580;28;20045;-35
2022/04/13 01:11:55;;;;;;;10.20;7.70;;;11.80;99.90;;;;;;5043617;28;20594;-33
2022/04/13 01:14:20;;;;;;;11.20;7.68;;;11.70;99.90;;;;;;5062111;28;20048;-33
2022/04/13 01:16:46;;;;;;;12.20;7.75;;;11.70;99.90;;;;;;5048209;28;20571;-32
2022/04/13 01:19:14;;;;;;;12.73;8.02;;;11.60;99.90;;;;;;5061949;28;20696;-34
2022/04/13 01:21:52;;;;;;;9.10;7.45;;;11.60;99.90;;;;;;5064811;28;20048;-35
2022/04/13 01:24:19;;;;;;;10.85;7.60;;;11.60;99.90;;;;;;5063459;28;20381;-35
2022/04/13 01:26:45;;;;;;;11.77;7.72;;;11.60;99.90;;;;;;5049787;28;20045;-35
2022/04/13 01:29:12;;;;;;;13.48;8.45;;;11.60;99.90;;;;;;5063500;28;20175;-33
2022/04/13 01:31:38;;;;;;;13.43;8.73;;;11.60;99.90;;;;;;5064838;28;20044;-35
2022/04/13 01:34:04;;;;;;;15.95;9.10;;;11.70;99.90;;;;;;5062016;28;20044;-35
2022/04/13 01:36:35;;;;;;;13.77;10.32;;;11.70;99.90;;;;;;5052124;28;20041;-33
2022/04/13 01:39:03;;;;;;;15.57;10.27;;;11.70;99.90;;;;;;5062347;28;20499;-35
2022/04/13 01:41:28;;;;;;;13.35;10.43;;;11.80;99.90;;;;;;5063535;28;20047;-35
2022/04/13 01:43:54;;;;;;;18.83;10.75;;;11.80;99.90;;;;;;5063468;28;20412;-35
2022/04/13 01:46:19;;;;;;;17.35;10.73;;;11.90;99.90;;;;;;5053676;28;20071;-31
2022/04/13 01:48:45;;;;;;;16.50;10.25;;;11.90;99.90;;;;;;5058452;28;20048;-35
2022/04/13 01:51:11;;;;;;;15.80;10.32;;;11.90;99.90;;;;;;5064744;28;20201;-34
2022/04/13 01:53:37;;;;;;;15.55;10.57;;;11.90;99.90;;;;;;5063768;28;20083;-34
2022/04/13 01:56:02;;;;;;;15.63;10.55;;;11.90;99.90;;;;;;5063021;28;20124;-35
2022/04/13 01:58:28;;;;;;;16.38;11.10;;;11.90;99.90;;;;;;5046080;28;20051;-34
2022/04/13 02:00:54;;;;;;;16.00;11.75;;;11.90;99.90;;;;;;5064094;28;20109;-35
2022/04/13 02:03:21;;;;;;;20.08;12.05;;;11.90;99.90;;;;;;5061776;28;20044;-35
2022/04/13 02:05:48;;;;;;;14.60;11.30;;;11.90;99.90;;;;;;5056450;28;20056;-34
2022/04/13 02:08:14;;;;;;;15.43;11.23;;;11.90;99.90;;;;;;5027850;28;20416;-34
2022/04/13 02:10:40;;;;;;;14.35;11.65;;;11.90;99.90;;;;;;5049440;28;20041;-33
2022/04/13 02:13:06;;;;;;;16.35;11.80;;;11.90;99.90;;;;;;5053980;28;20059;-35
2022/04/13 02:15:31;;;;;;;15.93;11.48;;;11.90;99.90;;;;;;5064549;28;20044;-33
2022/04/13 02:17:57;;;;;;;17.98;12.35;;;12.00;99.90;;;;;;5046512;28;20045;-32
2022/04/13 02:20:23;;;;;;;17.33;12.38;;;12.00;99.90;;;;;;5063838;28;20048;-36
2022/04/13 02:22:48;;;;;;;21.90;13.38;;;12.00;99.90;;;;;;5061801;28;20052;-32
2022/04/13 02:25:14;;;;;;;18.45;12.75;;;12.00;99.90;;;;;;5063886;28;20557;-32
2022/04/13 02:27:42;;;;;;;20.60;12.50;;;12.00;99.90;;;;;;5048217;28;20037;-34
2022/04/13 02:30:09;;;;;;;24.08;13.75;;;12.00;99.90;;;;;;5064265;28;20106;-34
2022/04/13 02:32:44;;;;;;;20.30;13.65;;;12.00;99.90;;;;;;5063067;28;20061;-34
2022/04/13 02:35:11;;;;;;;23.30;14.40;;;12.00;99.90;;;;;;5062594;28;20056;-35
2022/04/13 02:37:38;;;;;;;18.83;14.30;;;12.00;99.90;;;;;;5048458;28;20075;-35
2022/04/13 02:40:06;;;;;;;21.52;14.18;;;12.00;99.90;;;;;;5061308;28;20045;-34
2022/04/13 02:42:36;;;;;;;22.98;14.93;;;12.00;99.90;;;;;;5061847;28;20067;-32
2022/04/13 02:45:03;;;;;;;20.05;14.52;;;12.00;99.90;;;;;;5063769;28;20400;-34
2022/04/13 02:47:31;;;;;;;23.63;15.15;;;12.10;99.90;;;;;;5045997;28;20503;-35
2022/04/13 02:49:57;;;;;;;23.63;15.32;;;12.10;99.90;;;;;;5063773;28;20041;-34
2022/04/13 02:52:28;;;;;;;23.15;15.07;;;12.10;99.90;;;;;;5063175;28;20035;-34
2022/04/13 02:54:55;;;;;;;20.55;14.80;;;12.10;99.90;;;;;;5063991;28;20041;-34
2022/04/13 02:57:21;;;;;;;24.70;15.95;;;12.10;99.90;;;;;;5049501;28;20044;-39
2022/04/13 02:59:48;;;;;;;20.77;15.38;;;12.10;99.90;;;;;;5067370;28;20048;-32
2022/04/13 03:02:18;;;;;;;25.65;15.35;;;12.10;99.90;;;;;;5066804;28;20041;-35
2022/04/13 03:04:47;;;;;;;23.65;15.60;;;12.10;99.90;;;;;;5067207;28;20098;-34
2022/04/13 03:07:17;;;;;;;20.52;15.20;;;12.10;99.90;;;;;;5051408;28;20036;-35
2022/04/13 03:09:44;;;;;;;22.33;15.43;;;12.10;99.90;;;;;;5066694;28;20044;-35
2022/04/13 03:12:10;;;;;;;24.17;15.73;;;12.10;99.90;;;;;;5065006;28;20629;-32
2022/04/13 03:14:36;;;;;;;27.00;14.93;;;12.10;99.90;;;;;;5067416;28;20062;-35
2022/04/13 03:17:02;;;;;;;26.02;16.10;;;12.10;99.90;;;;;;5051940;28;20496;-35
2022/04/13 03:19:28;;;;;;;24.40;15.48;;;12.10;99.90;;;;;;5065745;28;20052;-32
2022/04/13 03:21:54;;;;;;;24.83;15.02;;;12.10;99.90;;;;;;5067386;28;20056;-32
2022/04/13 03:24:24;;;;;;;24.45;15.10;;;12.00;99.90;;;;;;5066095;28;20045;-34
2022/04/13 03:26:50;;;;;;;25.88;15.88;;;11.90;99.90;;;;;;5050780;28;20110;-34
2022/04/13 03:29:17;;;;;;;23.20;14.68;;;12.00;99.90;;;;;;5065835;28;20052;-35
2022/04/13 03:31:42;;;;;;;23.35;14.77;;;12.00;99.90;;;;;;5066938;28;20037;-33
2022/04/13 03:34:08;;;;;;;22.95;14.80;;;12.00;99.90;;;;;;5066092;28;20492;-35
2022/04/13 03:36:39;;;;;;;22.85;15.45;;;12.00;99.90;;;;;;5053074;28;20038;-34
2022/04/13 03:39:05;;;;;;;30.67;16.77;;;12.00;99.90;;;;;;5065282;28;20487;-35
2022/04/13 03:41:31;;;;;;;24.45;15.63;;;11.90;99.90;;;;;;5066784;28;20045;-35
2022/04/13 03:43:57;;;;;;;26.73;16.33;;;11.90;99.90;;;;;;5065818;28;20056;-34
2022/04/13 03:46:23;;;;;;;27.17;17.20;;;11.90;99.90;;;;;;5054269;28;20040;-34
2022/04/13 03:48:48;;;;;;;26.63;17.25;;;11.90;99.90;;;;;;5062656;28;20044;-34
2022/04/13 03:51:14;;;;;;;27.92;17.20;;;11.90;99.90;;;;;;5066251;28;20692;-35
2022/04/13 03:53:40;;;;;;;27.25;17.60;;;11.90;99.90;;;;;;5065808;28;20040;-35
2022/04/13 03:56:06;;;;;;;27.23;17.65;;;11.90;99.90;;;;;;5054461;28;20484;-33
2022/04/13 03:58:32;;;;;;;27.20;16.92;;;12.00;99.90;;;;;;5032089;28;20175;-34
2022/04/13 04:00:58;;;;;;;22.75;16.08;;;11.80;99.90;;;;;;5058323;28;20048;-34
2022/04/13 04:03:24;;;;;;;22.38;15.15;;;11.80;99.90;;;;;;5063979;28;20087;-35
2022/04/13 04:05:49;;;;;;;28.38;18.13;;;11.80;99.90;;;;;;5056631;28;20072;-33
2022/04/13 04:08:15;;;;;;;26.27;17.67;;;11.80;99.90;;;;;;5025880;28;20040;-32
2022/04/13 04:10:41;;;;;;;28.17;17.90;;;11.70;99.90;;;;;;5062280;28;20115;-34
2022/04/13 04:13:06;;;;;;;29.95;19.10;;;11.70;99.90;;;;;;5062945;28;20506;-35
2022/04/13 04:15:32;;;;;;;33.47;20.75;;;11.70;99.90;;;;;;5064441;28;20244;-34
2022/04/13 04:17:58;;;;;;;25.20;17.63;;;11.70;99.90;;;;;;5048856;28;20049;-35
2022/04/13 04:20:23;;;;;;;26.35;18.52;;;11.60;99.90;;;;;;5064865;28;20080;-34
2022/04/13 04:22:49;;;;;;;27.05;17.40;;;11.70;99.90;;;;;;5059066;28;20156;-34
2022/04/13 04:25:15;;;;;;;26.15;16.92;;;11.60;99.90;;;;;;5046267;28;20072;-35
2022/04/13 04:27:40;;;;;;;28.25;17.83;;;11.60;99.90;;;;;;5032487;28;20056;-32
2022/04/13 04:30:07;;;;;;;26.90;18.10;;;11.60;99.90;;;;;;5045898;28;20211;-33
2022/04/13 04:32:32;;;;;;;25.42;17.58;;;11.50;99.90;;;;;;5045289;28;20049;-33
2022/04/13 04:34:58;;;;;;;24.67;17.50;;;11.50;99.90;;;;;;5046058;28;20052;-35
2022/04/13 04:37:24;;;;;;;28.35;18.67;;;11.50;99.90;;;;;;5049016;28;20135;-34
2022/04/13 04:39:49;;;;;;;31.05;19.48;;;11.50;99.90;;;;;;5065714;28;20646;-34
2022/04/13 04:42:15;;;;;;;31.02;18.45;;;11.40;99.90;;;;;;5062760;28;20052;-33
2022/04/13 04:44:41;;;;;;;25.85;16.52;;;11.40;99.90;;;;;;5065634;28;20051;-32
2022/04/13 04:47:07;;;;;;;31.95;20.42;;;11.30;99.90;;;;;;5049404;28;20380;-31
2022/04/13 04:49:32;;;;;;;30.10;19.98;;;11.30;99.90;;;;;;5065390;28;20052;-34
2022/04/13 04:51:58;;;;;;;35.75;22.52;;;11.30;99.90;;;;;;5065051;28;20500;-34
2022/04/13 04:54:23;;;;;;;29.15;19.08;;;11.30;99.90;;;;;;5063053;28;20432;-35
2022/04/13 04:56:49;;;;;;;29.73;19.95;;;11.20;99.90;;;;;;5031821;28;20048;-35
2022/04/13 04:59:17;;;;;;;36.50;22.95;;;11.20;99.90;;;;;;5064589;28;20176;-33
2022/04/13 05:01:43;;;;;;;30.20;20.25;;;11.30;99.90;;;;;;5064891;28;20079;-34
2022/04/13 05:04:09;;;;;;;32.10;20.58;;;11.10;99.90;;;;;;5063956;28;20127;-36
2022/04/13 05:06:35;;;;;;;27.90;18.65;;;11.20;99.90;;;;;;5036197;28;20047;-35
2022/04/13 05:09:00;;;;;;;35.15;19.85;;;11.20;99.90;;;;;;5048715;28;20063;-36
2022/04/13 05:11:26;;;;;;;30.10;19.02;;;11.20;99.90;;;;;;5059836;28;20068;-34
2022/04/13 05:13:52;;;;;;;30.00;18.73;;;11.20;99.90;;;;;;5064003;28;20131;-33
2022/04/13 05:16:19;;;;;;;26.58;18.48;;;11.30;99.90;;;;;;5052194;28;20033;-33
2022/04/13 05:18:45;;;;;;;31.33;18.55;;;11.30;99.90;;;;;;5059810;28;20258;-33
2022/04/13 05:21:11;;;;;;;30.02;18.65;;;11.30;99.90;;;;;;5064475;28;20357;-33
2022/04/13 05:23:37;;;;;;;38.72;25.20;;;11.30;99.90;;;;;;5064161;28;20077;-35
2022/04/13 05:26:03;;;;;;;35.40;23.50;;;11.30;99.90;;;;;;5062943;28;20045;-33
2022/04/13 05:28:29;;;;;;;29.48;18.90;;;11.30;99.90;;;;;;5046872;28;20036;-34
2022/04/13 05:30:56;;;;;;;27.42;17.90;;;11.30;99.90;;;;;;5064674;28;20447;-35
2022/04/13 05:33:24;;;;;;;31.42;18.70;;;11.30;99.90;;;;;;5063925;28;20048;-34
2022/04/13 05:35:50;;;;;;;29.45;18.48;;;11.40;99.90;;;;;;5064417;28;20088;-32
2022/04/13 05:38:17;;;;;;;32.22;21.08;;;11.40;99.90;;;;;;5048925;28;20087;-35
2022/04/13 05:40:42;;;;;;;32.90;21.20;;;11.40;99.90;;;;;;5064148;28;20228;-33
2022/04/13 05:43:08;;;;;;;35.97;19.77;;;11.40;99.90;;;;;;5062214;28;20071;-36
2022/04/13 05:45:34;;;;;;;33.60;22.55;;;11.40;99.90;;;;;;5064789;28;20310;-35
2022/04/13 05:48:00;;;;;;;30.92;20.08;;;11.40;99.90;;;;;;5046355;28;20258;-33
2022/04/13 05:50:26;;;;;;;25.88;19.30;;;11.50;99.90;;;;;;5063786;28;20040;-35
2022/04/13 05:52:52;;;;;;;31.30;19.42;;;11.50;99.90;;;;;;5062209;28;20048;-35
2022/04/13 05:55:18;;;;;;;32.25;20.75;;;11.50;99.90;;;;;;5060822;28;20048;-37
2022/04/13 05:57:43;;;;;;;31.95;20.00;;;11.50;99.90;;;;;;5045816;28;20045;-37
2022/04/13 06:00:11;;;;;;;29.63;19.48;;;11.50;99.90;;;;;;5060440;28;20048;-36
2022/04/13 06:02:37;;;;;;;29.67;19.40;;;11.60;99.90;;;;;;5059293;28;20508;-35
2022/04/13 06:05:04;;;;;;;29.63;20.30;;;11.60;99.90;;;;;;5057279;28;20431;-38
2022/04/13 06:07:30;;;;;;;25.88;18.23;;;11.60;99.90;;;;;;5024351;28;20549;-37
2022/04/13 06:10:01;;;;;;;31.55;19.42;;;11.70;99.90;;;;;;5056422;28;20037;-36
2022/04/13 06:12:27;;;;;;;32.33;19.98;;;11.70;99.90;;;;;;5057166;28;20044;-37
2022/04/13 06:15:10;;;;;;;31.55;18.80;;;11.70;99.90;;;;;;5056834;28;20404;-38
2022/04/13 06:17:36;;;;;;;27.63;19.70;;;11.80;99.90;;;;;;5040682;28;20045;-37
2022/04/13 06:20:03;;;;;;;29.92;20.13;;;11.80;99.90;;;;;;5060547;28;20410;-38
2022/04/13 06:22:32;;;;;;;29.48;20.73;;;11.90;99.90;;;;;;5058925;28;20068;-36
2022/04/13 06:25:01;;;;;;;28.25;20.95;;;11.90;99.90;;;;;;5062041;28;20326;-37
2022/04/13 06:27:26;;;;;;;31.90;21.00;;;12.00;99.90;;;;;;5043529;28;20048;-36
2022/04/13 06:29:53;;;;;;;32.83;21.05;;;12.00;99.90;;;;;;5061818;28;20043;-37
2022/04/13 06:32:19;;;;;;;36.40;21.45;;;12.00;99.90;;;;;;5062603;28;20491;-36
2022/04/13 06:34:45;;;;;;;31.90;22.05;;;12.10;99.90;;;;;;5065687;28;20048;-36
2022/04/13 06:37:11;;;;;;;33.03;20.77;;;12.10;99.90;;;;;;5051195;28;20400;-36
2022/04/13 06:39:36;;;;;;;34.05;21.92;;;12.20;99.90;;;;;;5064742;28;20048;-35
2022/04/13 06:42:02;;;;;;;34.88;21.15;;;12.30;99.90;;;;;;5065827;28;20268;-35
2022/04/13 06:44:28;;;;;;;36.17;21.05;;;12.30;99.90;;;;;;5065025;28;20245;-37
2022/04/13 06:46:54;;;;;;;33.58;19.95;;;12.40;99.90;;;;;;5049539;28;20393;-37
2022/04/13 06:49:20;;;;;;;35.20;20.13;;;12.50;99.90;;;;;;5063517;28;20051;-36
2022/04/13 06:51:45;;;;;;;25.40;18.95;;;12.60;99.90;;;;;;5059647;28;20555;-33
2022/04/13 06:54:11;;;;;;;28.30;18.55;;;12.60;99.90;;;;;;5064882;28;20047;-35
2022/04/13 06:56:39;;;;;;;31.65;19.88;;;12.70;99.90;;;;;;5041272;28;20372;-37
2022/04/13 06:59:06;;;;;;;34.20;19.40;;;12.70;99.90;;;;;;5041182;28;20048;-37
2022/04/13 07:01:32;;;;;;;32.50;19.45;;;12.80;99.90;;;;;;5050859;28;20201;-38
2022/04/13 07:03:57;;;;;;;31.45;18.65;;;12.90;99.90;;;;;;5051424;28;20044;-37
2022/04/13 07:06:23;;;;;;;28.02;18.80;;;12.90;99.90;;;;;;5036736;28;20037;-36
2022/04/13 07:08:49;;;;;;;29.65;19.13;;;12.90;99.90;;;;;;5045961;28;20041;-37
2022/04/13 07:11:14;;;;;;;27.15;19.42;;;13.00;99.90;;;;;;5046589;28;20102;-35
2022/04/13 07:13:40;;;;;;;33.08;19.70;;;13.00;99.90;;;;;;5050664;28;20136;-37
2022/04/13 07:16:06;;;;;;;35.30;19.73;;;13.10;99.90;;;;;;5035828;28;20083;-33
2022/04/13 07:18:34;;;;;;;29.95;20.30;;;13.00;99.90;;;;;;5039665;28;20076;-36
2022/04/13 07:21:01;;;;;;;31.23;18.95;;;13.10;99.90;;;;;;5051220;28;20076;-35
2022/04/13 07:23:26;;;;;;;27.73;17.67;;;13.20;99.90;;;;;;5052848;28;20334;-36
2022/04/13 07:25:52;;;;;;;32.13;18.15;;;13.30;99.90;;;;;;5053600;28;20044;-35
2022/04/13 07:28:18;;;;;;;28.05;16.88;;;13.40;99.90;;;;;;5035711;28;20055;-36
2022/04/13 07:30:43;;;;;;;27.83;15.90;;;13.40;99.90;;;;;;5052334;28;20053;-33
2022/04/13 07:33:09;;;;;;;28.40;16.30;;;13.50;99.90;;;;;;5052550;28;20056;-36
2022/04/13 07:35:35;;;;;;;27.48;16.17;;;13.50;99.90;;;;;;5051136;28;20040;-36
2022/04/13 07:38:00;;;;;;;26.90;15.38;;;13.60;99.90;;;;;;5035514;28;20107;-33
2022/04/13 07:40:26;;;;;;;26.58;14.40;;;13.60;99.90;;;;;;5050630;28;20175;-36
2022/04/13 07:42:52;;;;;;;22.83;13.82;;;13.60;99.90;;;;;;5053004;28;20048;-33
2022/04/13 07:45:18;;;;;;;27.58;14.55;;;13.70;99.90;;;;;;5050945;28;20045;-34
2022/04/13 07:47:44;;;;;;;23.90;14.43;;;13.80;99.90;;;;;;5041401;28;20052;-35
2022/04/13 07:50:14;;;;;;;23.23;13.52;;;13.70;99.90;;;;;;5049407;28;20047;-35
2022/04/13 07:52:41;;;;;;;25.95;14.20;;;13.80;99.90;;;;;;5052496;28;20123;-34
2022/04/13 07:55:09;;;;;;;22.98;14.52;;;13.80;99.90;;;;;;5050583;28;20914;-35
2022/04/13 07:57:36;;;;;;;22.42;13.32;;;13.80;99.90;;;;;;5031897;28;20111;-37
2022/04/13 08:00:03;;;;;;;25.27;13.55;;;13.90;99.90;;;;;;5055785;28;20123;-35
2022/04/13 08:02:28;;;;;;;22.33;14.00;;;14.00;99.90;;;;;;5047429;28;20550;-36
2022/04/13 08:04:55;;;;;;;24.95;14.20;;;14.00;99.90;;;;;;5055572;28;20041;-37
2022/04/13 08:07:21;;;;;;;21.35;13.38;;;14.00;99.90;;;;;;5034838;28;20044;-35
2022/04/13 08:09:47;;;;;;;20.23;13.75;;;14.00;99.90;;;;;;5047166;28;20048;-35
2022/04/13 08:12:15;;;;;;;20.70;13.18;;;14.10;99.90;;;;;;5038602;28;20033;-38
2022/04/13 08:14:41;;;;;;;22.67;13.55;;;14.10;99.90;;;;;;5052775;28;20071;-37
2022/04/13 08:17:06;;;;;;;19.83;13.15;;;14.20;99.90;;;;;;5034011;28;20552;-37
2022/04/13 08:19:32;;;;;;;21.50;13.43;;;14.20;99.90;;;;;;5051517;28;20507;-35
2022/04/13 08:21:58;;;;;;;19.95;12.57;;;14.30;99.90;;;;;;5050887;28;20113;-35
2022/04/13 08:24:24;;;;;;;23.10;13.13;;;14.30;99.90;;;;;;5047966;28;20553;-37
2022/04/13 08:26:49;;;;;;;22.33;13.40;;;14.40;99.90;;;;;;5037187;28;20043;-33
2022/04/13 08:29:15;;;;;;;20.02;13.50;;;14.40;99.90;;;;;;5049243;28;20117;-36
2022/04/13 08:31:41;;;;;;;19.73;13.70;;;14.40;99.90;;;;;;5044508;28;20044;-37
2022/04/13 08:34:06;;;;;;;21.05;12.52;;;14.50;99.90;;;;;;5050951;28;20036;-36
2022/04/13 08:36:32;;;;;;;22.33;12.55;;;14.60;99.90;;;;;;5039597;28;20057;-37
2022/04/13 08:38:58;;;;;;;21.50;12.65;;;14.70;99.90;;;;;;5052461;28;20651;-36
2022/04/13 08:41:54;;;;;;;16.33;11.27;;;14.70;99.90;;;;;;5046985;28;20044;-34
2022/04/13 08:44:22;;;;;;;21.05;12.02;;;14.80;99.90;;;;;;5047190;28;20091;-36
2022/04/13 08:46:50;;;;;;;20.73;11.80;;;14.90;99.90;;;;;;5037439;28;20439;-37
2022/04/13 08:49:17;;;;;;;20.25;11.00;;;14.90;99.90;;;;;;5052165;28;20071;-36
2022/04/13 08:51:45;;;;;;;18.58;11.23;;;15.00;99.90;;;;;;5049789;28;20052;-36
2022/04/13 08:54:28;;;;;;;17.92;10.35;;;15.10;99.90;;;;;;5048131;28;20051;-37
2022/04/13 08:56:56;;;;;;;15.88;10.25;;;15.10;99.90;;;;;;5034192;28;20049;-37
2022/04/13 08:59:32;;;;;;;17.05;11.35;;;15.10;99.90;;;;;;5048199;28;20052;-37
2022/04/13 09:02:17;;;;;;;17.20;9.80;;;15.10;99.90;;;;;;5050888;28;20347;-36
2022/04/13 09:04:45;;;;;;;17.90;9.75;;;15.20;99.90;;;;;;5048668;28;20097;-37
2022/04/13 09:07:13;;;;;;;14.52;9.32;;;15.20;99.90;;;;;;5037516;28;20055;-36
2022/04/13 09:09:46;;;;;;;19.92;9.70;;;15.20;99.90;;;;;;5054769;28;20479;-37
2022/04/13 09:12:13;;;;;;;16.13;9.82;;;15.30;99.90;;;;;;5051244;28;20041;-37
2022/04/13 09:14:40;;;;;;;19.38;10.27;;;15.30;99.90;;;;;;5054575;28;20355;-36
2022/04/13 09:17:07;;;;;;;15.60;9.77;;;15.30;99.90;;;;;;5039996;28;20519;-36
2022/04/13 09:19:33;;;;;;;17.05;10.25;;;15.40;99.90;;;;;;5050237;28;20103;-37
2022/04/13 09:21:59;;;;;;;19.70;10.63;;;15.40;99.90;;;;;;5051699;28;20097;-36
2022/04/13 09:24:31;;;;;;;15.52;10.57;;;15.30;99.90;;;;;;5049237;28;20822;-37
2022/04/13 09:26:59;;;;;;;17.95;9.98;;;15.50;99.90;;;;;;5033027;28;20296;-34
2022/04/13 09:29:25;;;;;;;17.42;10.13;;;15.60;99.90;;;;;;5054120;28;21634;-37
2022/04/13 09:31:51;;;;;;;16.83;9.23;;;15.60;99.90;;;;;;5053487;28;20056;-34
2022/04/13 09:34:17;;;;;;;15.32;9.68;;;15.60;99.90;;;;;;5049254;28;20040;-37
2022/04/13 09:36:43;;;;;;;21.48;9.70;;;15.80;99.90;;;;;;5041361;28;20550;-35
2022/04/13 09:39:10;;;;;;;15.90;10.23;;;15.80;99.90;;;;;;5049095;28;20511;-33
2022/04/13 09:41:38;;;;;;;11.60;7.95;;;15.80;99.90;;;;;;5047687;28;20075;-36
2022/04/13 09:44:21;;;;;;;15.38;9.00;;;15.90;99.90;;;;;;5048948;28;20630;-37
2022/04/13 09:46:47;;;;;;;15.77;9.23;;;15.90;99.90;;;;;;5032342;28;20556;-34
2022/04/13 09:49:18;;;;;;;14.68;9.55;;;15.90;99.90;;;;;;5047433;28;20048;-35
2022/04/13 09:51:48;;;;;;;19.42;8.80;;;16.00;99.90;;;;;;5047207;28;20048;-32
2022/04/13 09:54:14;;;;;;;11.80;7.78;;;16.00;99.90;;;;;;5047301;28;20506;-35
2022/04/13 09:56:46;;;;;;;13.20;7.85;;;16.00;99.90;;;;;;5029432;28;20089;-36
2022/04/13 09:59:23;;;;;;;13.18;7.88;;;16.10;99.90;;;;;;5048355;28;20513;-32
2022/04/13 10:01:49;;;;;;;13.82;8.32;;;16.10;99.90;;;;;;5045109;28;20040;-36
2022/04/13 10:04:25;;;;;;;13.13;8.73;;;16.10;99.90;;;;;;5042645;28;20088;-35
2022/04/13 10:06:51;;;;;;;13.35;8.73;;;16.20;99.90;;;;;;5030701;28;20399;-32
2022/04/13 10:09:16;;;;;;;13.65;8.45;;;16.20;99.90;;;;;;5048772;28;20044;-35
2022/04/13 10:12:03;;;;;;;14.13;8.35;;;16.20;99.90;;;;;;5045890;28;20058;-35
2022/04/13 10:14:32;;;;;;;15.80;8.20;;;16.30;99.90;;;;;;5046905;28;20200;-35
2022/04/13 10:17:15;;;;;;;14.50;7.65;;;16.30;99.90;;;;;;5030931;28;20114;-36
2022/04/13 10:19:43;;;;;;;12.43;9.07;;;16.40;99.90;;;;;;5045780;28;20500;-33
2022/04/13 10:22:09;;;;;;;16.27;9.15;;;16.50;99.90;;;;;;5055052;28;20041;-36
2022/04/13 10:24:40;;;;;;;12.77;7.75;;;16.60;99.90;;;;;;5056380;28;20114;-38
2022/04/13 10:27:10;;;;;;;;;;;16.60;99.90;;;;;;5030568;28;20080;-35
2022/04/13 10:29:38;;;;;;;11.68;6.50;;;16.70;99.90;;;;;;5047476;28;19929;-35
2022/04/13 10:32:11;;;;;;;14.65;6.38;;;16.80;99.90;;;;;;5051741;28;20044;-33
2022/04/13 10:34:47;;;;;;;11.05;5.43;;;16.90;99.90;;;;;;5036869;28;20044;-35
2022/04/13 10:37:16;;;;;;;9.60;5.53;;;17.00;99.90;;;;;;5037633;28;20048;-34
2022/04/13 10:39:42;;;;;;;13.95;5.93;;;17.10;99.90;;;;;;5052845;28;20072;-36
2022/04/13 10:42:13;;;;;;;12.75;5.50;;;17.20;99.90;;;;;;5050422;28;20172;-35
2022/04/13 10:45:03;;;;;;;14.07;5.70;;;17.30;99.90;;;;;;5044677;28;20040;-35
2022/04/13 10:47:58;;;;;;;14.75;6.88;;;17.30;99.90;;;;;;4984219;28;1089934;-35
2022/04/13 10:50:34;;;;;;;13.18;5.72;;;17.30;99.90;;;;;;5048358;28;20119;-34
2022/04/13 10:53:15;;;;;;;10.32;6.65;;;17.30;99.90;;;;;;5044050;28;20044;-35
2022/04/13 10:55:42;;;;;;;10.35;5.50;;;17.30;99.90;;;;;;5048040;28;20547;-33
2022/04/13 10:58:18;;;;;;;10.52;5.78;;;17.30;99.90;;;;;;5036731;28;20045;-36
2022/04/13 11:00:49;;;;;;;10.45;5.75;;;17.30;99.90;;;;;;5047688;28;20052;-32
2022/04/13 11:03:16;;;;;;;11.93;6.20;;;17.30;99.90;;;;;;5049036;28;20048;-35
2022/04/13 11:05:42;;;;;;;12.27;5.70;;;17.40;99.90;;;;;;5045778;28;20059;-36
2022/04/13 11:08:14;;;;;;;10.40;5.10;;;17.40;99.90;;;;;;5032990;28;20052;-35
2022/04/13 11:10:42;;;;;;;12.13;6.03;;;17.50;99.90;;;;;;5050379;28;20437;-34
2022/04/13 11:13:08;;;;;;;11.02;5.20;;;17.50;99.90;;;;;;5042143;28;20424;-35
2022/04/13 11:15:45;;;;;;;9.82;4.72;;;17.60;99.90;;;;;;5046848;28;20037;-36
2022/04/13 11:18:20;;;;;;;11.43;4.55;;;17.60;99.90;;;;;;5029660;28;20044;-36
2022/04/13 11:21:05;;;;;;;10.93;5.25;;;17.60;99.90;;;;;;5050664;28;20049;-36
2022/04/13 11:23:52;;;;;;;10.00;4.32;;;17.60;99.90;;;;;;5049885;28;20138;-35
2022/04/13 11:26:26;;;;;;;13.93;5.43;;;17.60;99.90;;;;;;5036215;28;20056;-37
2022/04/13 11:29:17;;;;;;;13.15;5.15;;;17.50;99.90;;;;;;5049834;28;20044;-36
2022/04/13 11:32:01;;;;;;;9.27;4.70;;;17.50;99.90;;;;;;5055184;28;20099;-36
2022/04/13 11:34:27;;;;;;;8.50;4.40;;;17.40;99.90;;;;;;5051140;28;20057;-36
2022/04/13 11:36:58;;;;;;;10.23;3.72;;;17.40;99.90;;;;;;5037932;28;20044;-34
2022/04/13 11:39:49;;;;;;;11.25;4.28;;;17.40;99.90;;;;;;5046021;28;20147;-36
2022/04/13 11:42:24;;;;;;;10.37;4.10;;;17.40;99.90;;;;;;5048070;28;20060;-33
2022/04/13 11:45:02;;;;;;;11.20;4.80;;;17.40;99.90;;;;;;5047094;28;20049;-35
2022/04/13 11:47:49;;;;;;;9.15;4.50;;;17.40;99.90;;;;;;5032535;28;20133;-36
2022/04/13 11:50:15;;;;;;;12.93;4.72;;;17.40;99.90;;;;;;5053238;28;20056;-36
2022/04/13 11:52:52;;;;;;;10.65;4.65;;;17.40;99.90;;;;;;5048455;28;20049;-36
2022/04/13 11:55:39;;;;;;;9.63;4.75;;;17.40;99.90;;;;;;5047714;28;20052;-36
2022/04/13 11:58:06;;;;;;;13.27;5.45;;;17.40;99.90;;;;;;5030630;28;20052;-36
2022/04/13 12:00:44;;;;;;;18.75;5.78;;;17.40;99.90;;;;;;5049434;28;20126;-36
2022/04/13 12:03:15;;;;;;;11.70;5.35;;;17.40;99.90;;;;;;5046654;28;20388;-36
2022/04/13 12:05:43;;;;;;;11.60;4.65;;;17.30;99.90;;;;;;5046414;28;20057;-35
2022/04/13 12:08:32;;;;;;;13.82;5.25;;;17.30;99.90;;;;;;5030841;28;20327;-36
2022/04/13 12:10:58;;;;;;;10.52;4.88;;;17.30;99.90;;;;;;5048366;28;20057;-34
2022/04/13 12:13:25;;;;;;;13.88;5.15;;;17.20;99.90;;;;;;5047175;28;20440;-35
2022/04/13 12:15:53;;;;;;;13.93;5.13;;;17.10;99.90;;;;;;5046389;28;20079;-36
2022/04/13 12:18:21;;;;;;;11.65;4.38;;;17.10;99.90;;;;;;5032627;28;20416;-36
2022/04/13 12:20:49;;;;;;;10.65;4.47;;;17.10;99.90;;;;;;5049183;28;20587;-36
2022/04/13 12:23:23;;;;;;;14.65;5.45;;;17.00;99.90;;;;;;5047801;28;20040;-37
2022/04/13 12:25:56;;;;;;;13.57;5.45;;;16.90;99.90;;;;;;5047832;28;20109;-36
2022/04/13 12:28:23;;;;;;;13.90;6.05;;;16.90;99.90;;;;;;5028283;28;20511;-36
2022/04/13 12:30:58;;;;;;;12.50;4.90;;;16.80;99.90;;;;;;5046243;28;20057;-33
2022/04/13 12:33:25;;;;;;;14.05;5.07;;;16.80;99.90;;;;;;5043592;28;20056;-35
2022/04/13 12:36:03;;;;;;;12.23;5.22;;;16.70;99.90;;;;;;5047073;28;20036;-36